sensor_id;sensor_type;location;lat;lon;timestamp;P1;durP1;ratioP1;P2;durP2;ratioP2
75512;SDS011;64090;49.770;18.760;2023-03-23T00:04:38;7.20;;;4.10;;
75512;SDS011;64090;49.770;18.760;2023-03-23T00:12:15;7.30;;;4.90;;
75512;SDS011;64090;49.770;18.760;2023-03-23T00:30:40;5.60;;;3.50;;
75512;SDS011;64090;49.770;18.760;2023-03-23T00:34:28;5.70;;;3.80;;
75512;SDS011;64090;49.770;18.760;2023-03-23T00:42:21;6.40;;;4.40;;
75512;SDS011;64090;49.770;18.760;2023-03-23T00:49:39;5.90;;;4.00;;
75512;SDS011;64090;49.770;18.760;2023-03-23T01:04:50;7.30;;;4.10;;
75512;SDS011;64090;49.770;18.760;2023-03-23T01:08:18;7.30;;;3.60;;
75512;SDS011;64090;49.770;18.760;2023-03-23T01:11:49;5.50;;;3.50;;
75512;SDS011;64090;49.770;18.760;2023-03-23T01:19:24;7.60;;;4.80;;
75512;SDS011;64090;49.770;18.760;2023-03-23T01:34:26;6.80;;;4.30;;
75512;SDS011;64090;49.770;18.760;2023-03-23T01:37:28;4.60;;;3.80;;
75512;SDS011;64090;49.770;18.760;2023-03-23T01:40:30;6.70;;;5.30;;
75512;SDS011;64090;49.770;18.760;2023-03-23T01:43:32;7.20;;;4.50;;
75512;SDS011;64090;49.770;18.760;2023-03-23T01:46:34;6.10;;;4.70;;
75512;SDS011;64090;49.770;18.760;2023-03-23T01:49:37;5.10;;;3.20;;
75512;SDS011;64090;49.770;18.760;2023-03-23T01:52:44;4.80;;;3.30;;
75512;SDS011;64090;49.770;18.760;2023-03-23T01:55:46;4.20;;;3.20;;
75512;SDS011;64090;49.770;18.760;2023-03-23T01:58:52;5.50;;;3.70;;
75512;SDS011;64090;49.770;18.760;2023-03-23T02:01:55;4.60;;;3.30;;
75512;SDS011;64090;49.770;18.760;2023-03-23T02:04:59;5.40;;;4.30;;
75512;SDS011;64090;49.770;18.760;2023-03-23T02:08:06;5.60;;;3.80;;
75512;SDS011;64090;49.770;18.760;2023-03-23T02:11:28;5.80;;;4.10;;
75512;SDS011;64090;49.770;18.760;2023-03-23T02:14:29;6.80;;;4.40;;
75512;SDS011;64090;49.770;18.760;2023-03-23T02:24:28;5.00;;;3.80;;
75512;SDS011;64090;49.770;18.760;2023-03-23T02:31:34;4.80;;;2.80;;
75512;SDS011;64090;49.770;18.760;2023-03-23T02:34:53;5.20;;;3.50;;
75512;SDS011;64090;49.770;18.760;2023-03-23T02:38:01;6.60;;;5.70;;
75512;SDS011;64090;49.770;18.760;2023-03-23T02:41:26;5.90;;;4.30;;
75512;SDS011;64090;49.770;18.760;2023-03-23T02:44:32;7.10;;;4.40;;
75512;SDS011;64090;49.770;18.760;2023-03-23T02:47:38;5.40;;;3.40;;
75512;SDS011;64090;49.770;18.760;2023-03-23T02:50:43;4.70;;;3.70;;
75512;SDS011;64090;49.770;18.760;2023-03-23T02:53:48;5.20;;;3.70;;
75512;SDS011;64090;49.770;18.760;2023-03-23T02:56:53;7.00;;;4.50;;
75512;SDS011;64090;49.770;18.760;2023-03-23T02:59:56;5.70;;;3.30;;
75512;SDS011;64090;49.770;18.760;2023-03-23T03:02:58;5.30;;;3.70;;
75512;SDS011;64090;49.770;18.760;2023-03-23T03:16:38;6.10;;;3.40;;
75512;SDS011;64090;49.770;18.760;2023-03-23T03:19:50;5.10;;;3.00;;
75512;SDS011;64090;49.770;18.760;2023-03-23T03:22:58;4.00;;;2.80;;
75512;SDS011;64090;49.770;18.760;2023-03-23T03:26:02;7.40;;;4.00;;
75512;SDS011;64090;49.770;18.760;2023-03-23T03:29:06;4.70;;;3.80;;
75512;SDS011;64090;49.770;18.760;2023-03-23T03:32:11;6.30;;;4.30;;
75512;SDS011;64090;49.770;18.760;2023-03-23T03:35:17;6.00;;;3.80;;
75512;SDS011;64090;49.770;18.760;2023-03-23T03:38:19;4.20;;;3.20;;
75512;SDS011;64090;49.770;18.760;2023-03-23T03:41:21;6.00;;;3.70;;
75512;SDS011;64090;49.770;18.760;2023-03-23T03:44:23;5.30;;;3.10;;
75512;SDS011;64090;49.770;18.760;2023-03-23T03:47:24;6.30;;;3.80;;
75512;SDS011;64090;49.770;18.760;2023-03-23T03:50:26;6.20;;;4.30;;
75512;SDS011;64090;49.770;18.760;2023-03-23T03:53:28;7.90;;;2.90;;
75512;SDS011;64090;49.770;18.760;2023-03-23T03:56:32;6.30;;;4.60;;
75512;SDS011;64090;49.770;18.760;2023-03-23T03:59:37;3.90;;;2.50;;
75512;SDS011;64090;49.770;18.760;2023-03-23T04:02:38;5.20;;;3.10;;
75512;SDS011;64090;49.770;18.760;2023-03-23T04:05:42;3.70;;;2.30;;
75512;SDS011;64090;49.770;18.760;2023-03-23T04:08:45;5.10;;;3.20;;
75512;SDS011;64090;49.770;18.760;2023-03-23T04:11:47;5.90;;;4.80;;
75512;SDS011;64090;49.770;18.760;2023-03-23T04:14:49;6.90;;;4.40;;
75512;SDS011;64090;49.770;18.760;2023-03-23T04:17:50;5.30;;;3.70;;
75512;SDS011;64090;49.770;18.760;2023-03-23T04:20:52;5.40;;;3.20;;
75512;SDS011;64090;49.770;18.760;2023-03-23T04:23:56;5.60;;;4.60;;
75512;SDS011;64090;49.770;18.760;2023-03-23T04:27:01;5.40;;;3.40;;
75512;SDS011;64090;49.770;18.760;2023-03-23T04:30:03;4.60;;;3.70;;
75512;SDS011;64090;49.770;18.760;2023-03-23T04:33:06;6.50;;;4.90;;
75512;SDS011;64090;49.770;18.760;2023-03-23T04:36:08;5.00;;;3.20;;
75512;SDS011;64090;49.770;18.760;2023-03-23T04:39:09;4.80;;;2.90;;
75512;SDS011;64090;49.770;18.760;2023-03-23T04:42:11;6.30;;;3.70;;
75512;SDS011;64090;49.770;18.760;2023-03-23T04:45:16;5.30;;;2.80;;
75512;SDS011;64090;49.770;18.760;2023-03-23T04:48:24;6.20;;;4.30;;
75512;SDS011;64090;49.770;18.760;2023-03-23T04:51:30;4.30;;;2.90;;
75512;SDS011;64090;49.770;18.760;2023-03-23T04:54:32;4.10;;;2.80;;
75512;SDS011;64090;49.770;18.760;2023-03-23T04:57:34;4.30;;;3.10;;
75512;SDS011;64090;49.770;18.760;2023-03-23T05:00:36;5.00;;;3.40;;
75512;SDS011;64090;49.770;18.760;2023-03-23T05:03:38;5.10;;;2.80;;
75512;SDS011;64090;49.770;18.760;2023-03-23T05:06:40;5.20;;;3.90;;
75512;SDS011;64090;49.770;18.760;2023-03-23T05:09:46;4.70;;;3.40;;
75512;SDS011;64090;49.770;18.760;2023-03-23T05:12:49;4.50;;;3.40;;
75512;SDS011;64090;49.770;18.760;2023-03-23T05:15:50;4.60;;;3.10;;
75512;SDS011;64090;49.770;18.760;2023-03-23T05:18:52;6.00;;;3.60;;
75512;SDS011;64090;49.770;18.760;2023-03-23T05:21:56;4.70;;;3.60;;
75512;SDS011;64090;49.770;18.760;2023-03-23T05:24:58;4.10;;;3.20;;
75512;SDS011;64090;49.770;18.760;2023-03-23T05:28:03;4.50;;;2.80;;
75512;SDS011;64090;49.770;18.760;2023-03-23T05:31:05;4.80;;;3.60;;
75512;SDS011;64090;49.770;18.760;2023-03-23T05:34:07;5.50;;;4.20;;
75512;SDS011;64090;49.770;18.760;2023-03-23T05:37:09;6.10;;;4.50;;
75512;SDS011;64090;49.770;18.760;2023-03-23T05:40:13;6.60;;;3.80;;
75512;SDS011;64090;49.770;18.760;2023-03-23T05:43:15;4.20;;;3.10;;
75512;SDS011;64090;49.770;18.760;2023-03-23T05:46:17;5.50;;;4.50;;
75512;SDS011;64090;49.770;18.760;2023-03-23T05:49:19;6.30;;;4.00;;
75512;SDS011;64090;49.770;18.760;2023-03-23T05:52:21;6.60;;;4.00;;
75512;SDS011;64090;49.770;18.760;2023-03-23T05:55:25;7.00;;;4.00;;
75512;SDS011;64090;49.770;18.760;2023-03-23T05:58:26;4.90;;;3.90;;
75512;SDS011;64090;49.770;18.760;2023-03-23T06:01:28;4.90;;;4.30;;
75512;SDS011;64090;49.770;18.760;2023-03-23T06:04:30;9.00;;;4.00;;
75512;SDS011;64090;49.770;18.760;2023-03-23T06:07:34;5.00;;;3.20;;
75512;SDS011;64090;49.770;18.760;2023-03-23T06:10:36;4.30;;;2.70;;
75512;SDS011;64090;49.770;18.760;2023-03-23T06:13:38;5.20;;;3.60;;
75512;SDS011;64090;49.770;18.760;2023-03-23T06:16:40;4.80;;;3.10;;
75512;SDS011;64090;49.770;18.760;2023-03-23T06:19:41;4.80;;;2.80;;
75512;SDS011;64090;49.770;18.760;2023-03-23T06:22:43;3.60;;;1.90;;
75512;SDS011;64090;49.770;18.760;2023-03-23T06:25:45;5.60;;;3.20;;
75512;SDS011;64090;49.770;18.760;2023-03-23T06:28:47;5.00;;;3.10;;
75512;SDS011;64090;49.770;18.760;2023-03-23T06:31:57;4.10;;;2.60;;
75512;SDS011;64090;49.770;18.760;2023-03-23T06:35:03;3.30;;;2.40;;
75512;SDS011;64090;49.770;18.760;2023-03-23T06:38:05;4.40;;;3.40;;
75512;SDS011;64090;49.770;18.760;2023-03-23T06:41:07;5.00;;;3.40;;
75512;SDS011;64090;49.770;18.760;2023-03-23T06:44:09;5.90;;;3.90;;
75512;SDS011;64090;49.770;18.760;2023-03-23T06:47:14;5.00;;;3.10;;
75512;SDS011;64090;49.770;18.760;2023-03-23T06:50:16;4.80;;;3.80;;
75512;SDS011;64090;49.770;18.760;2023-03-23T06:53:18;5.50;;;4.50;;
75512;SDS011;64090;49.770;18.760;2023-03-23T06:56:21;5.00;;;3.80;;
75512;SDS011;64090;49.770;18.760;2023-03-23T06:59:23;4.00;;;3.50;;
75512;SDS011;64090;49.770;18.760;2023-03-23T07:02:25;4.20;;;3.10;;
75512;SDS011;64090;49.770;18.760;2023-03-23T07:05:27;3.80;;;2.70;;
75512;SDS011;64090;49.770;18.760;2023-03-23T07:08:29;4.50;;;2.90;;
75512;SDS011;64090;49.770;18.760;2023-03-23T07:11:31;4.00;;;3.00;;
75512;SDS011;64090;49.770;18.760;2023-03-23T07:14:33;3.70;;;2.60;;
75512;SDS011;64090;49.770;18.760;2023-03-23T07:17:35;5.20;;;3.40;;
75512;SDS011;64090;49.770;18.760;2023-03-23T07:20:37;4.40;;;2.50;;
75512;SDS011;64090;49.770;18.760;2023-03-23T07:23:38;3.50;;;2.20;;
75512;SDS011;64090;49.770;18.760;2023-03-23T07:26:40;3.60;;;2.80;;
75512;SDS011;64090;49.770;18.760;2023-03-23T07:29:42;5.30;;;2.90;;
75512;SDS011;64090;49.770;18.760;2023-03-23T07:32:45;4.10;;;2.50;;
75512;SDS011;64090;49.770;18.760;2023-03-23T07:35:47;3.40;;;2.50;;
75512;SDS011;64090;49.770;18.760;2023-03-23T07:38:49;3.70;;;2.30;;
75512;SDS011;64090;49.770;18.760;2023-03-23T07:41:51;3.80;;;2.90;;
75512;SDS011;64090;49.770;18.760;2023-03-23T07:44:53;3.20;;;2.50;;
75512;SDS011;64090;49.770;18.760;2023-03-23T07:47:54;5.20;;;2.50;;
75512;SDS011;64090;49.770;18.760;2023-03-23T07:50:58;5.00;;;2.80;;
75512;SDS011;64090;49.770;18.760;2023-03-23T07:54:00;5.70;;;3.20;;
75512;SDS011;64090;49.770;18.760;2023-03-23T07:57:04;4.10;;;2.00;;
75512;SDS011;64090;49.770;18.760;2023-03-23T08:00:07;3.40;;;2.30;;
75512;SDS011;64090;49.770;18.760;2023-03-23T08:03:21;3.90;;;2.80;;
75512;SDS011;64090;49.770;18.760;2023-03-23T08:06:26;5.50;;;3.00;;
75512;SDS011;64090;49.770;18.760;2023-03-23T08:09:29;3.90;;;2.10;;
75512;SDS011;64090;49.770;18.760;2023-03-23T08:12:30;4.60;;;2.40;;
75512;SDS011;64090;49.770;18.760;2023-03-23T08:15:33;3.40;;;2.00;;
75512;SDS011;64090;49.770;18.760;2023-03-23T08:18:38;3.40;;;2.40;;
75512;SDS011;64090;49.770;18.760;2023-03-23T08:21:41;3.70;;;2.80;;
75512;SDS011;64090;49.770;18.760;2023-03-23T08:24:43;2.90;;;2.30;;
75512;SDS011;64090;49.770;18.760;2023-03-23T08:27:45;5.80;;;2.50;;
75512;SDS011;64090;49.770;18.760;2023-03-23T08:30:46;5.30;;;2.80;;
75512;SDS011;64090;49.770;18.760;2023-03-23T08:33:49;4.10;;;2.50;;
75512;SDS011;64090;49.770;18.760;2023-03-23T08:36:51;5.50;;;2.60;;
75512;SDS011;64090;49.770;18.760;2023-03-23T08:39:55;4.50;;;2.90;;
75512;SDS011;64090;49.770;18.760;2023-03-23T08:42:58;4.80;;;3.30;;
75512;SDS011;64090;49.770;18.760;2023-03-23T08:46:00;4.70;;;2.70;;
75512;SDS011;64090;49.770;18.760;2023-03-23T08:49:08;6.50;;;3.10;;
75512;SDS011;64090;49.770;18.760;2023-03-23T08:52:09;4.10;;;2.50;;
75512;SDS011;64090;49.770;18.760;2023-03-23T08:55:11;6.10;;;3.30;;
75512;SDS011;64090;49.770;18.760;2023-03-23T08:58:13;4.40;;;2.90;;
75512;SDS011;64090;49.770;18.760;2023-03-23T09:01:15;5.10;;;3.80;;
75512;SDS011;64090;49.770;18.760;2023-03-23T09:04:17;5.90;;;3.50;;
75512;SDS011;64090;49.770;18.760;2023-03-23T09:07:19;5.60;;;3.50;;
75512;SDS011;64090;49.770;18.760;2023-03-23T09:10:21;5.00;;;3.00;;
75512;SDS011;64090;49.770;18.760;2023-03-23T09:13:24;4.90;;;2.40;;
75512;SDS011;64090;49.770;18.760;2023-03-23T09:16:25;3.40;;;2.20;;
75512;SDS011;64090;49.770;18.760;2023-03-23T09:19:28;6.10;;;3.10;;
75512;SDS011;64090;49.770;18.760;2023-03-23T09:22:30;4.90;;;2.50;;
75512;SDS011;64090;49.770;18.760;2023-03-23T09:25:32;4.50;;;2.40;;
75512;SDS011;64090;49.770;18.760;2023-03-23T09:28:33;3.80;;;2.20;;
75512;SDS011;64090;49.770;18.760;2023-03-23T09:31:35;4.10;;;2.30;;
75512;SDS011;64090;49.770;18.760;2023-03-23T09:34:38;3.70;;;2.50;;
75512;SDS011;64090;49.770;18.760;2023-03-23T09:37:40;3.30;;;2.00;;
75512;SDS011;64090;49.770;18.760;2023-03-23T09:40:46;4.80;;;2.90;;
75512;SDS011;64090;49.770;18.760;2023-03-23T09:47:58;4.00;;;2.70;;
75512;SDS011;64090;49.770;18.760;2023-03-23T09:54:26;5.00;;;2.70;;
75512;SDS011;64090;49.770;18.760;2023-03-23T10:01:12;3.90;;;2.00;;
75512;SDS011;64090;49.770;18.760;2023-03-23T10:04:31;3.90;;;2.00;;
75512;SDS011;64090;49.770;18.760;2023-03-23T10:07:39;4.70;;;2.90;;
75512;SDS011;64090;49.770;18.760;2023-03-23T10:17:30;4.30;;;2.30;;
75512;SDS011;64090;49.770;18.760;2023-03-23T10:20:41;4.00;;;2.40;;
75512;SDS011;64090;49.770;18.760;2023-03-23T10:36:23;5.00;;;2.40;;
75512;SDS011;64090;49.770;18.760;2023-03-23T10:39:31;4.80;;;2.90;;
75512;SDS011;64090;49.770;18.760;2023-03-23T10:42:43;3.90;;;2.80;;
75512;SDS011;64090;49.770;18.760;2023-03-23T10:45:45;4.10;;;1.90;;
75512;SDS011;64090;49.770;18.760;2023-03-23T10:48:55;4.50;;;2.60;;
75512;SDS011;64090;49.770;18.760;2023-03-23T10:55:15;4.90;;;2.70;;
75512;SDS011;64090;49.770;18.760;2023-03-23T10:58:23;4.10;;;2.60;;
75512;SDS011;64090;49.770;18.760;2023-03-23T11:04:33;3.50;;;1.40;;
75512;SDS011;64090;49.770;18.760;2023-03-23T11:07:36;5.50;;;2.80;;
75512;SDS011;64090;49.770;18.760;2023-03-23T11:10:39;3.90;;;2.00;;
75512;SDS011;64090;49.770;18.760;2023-03-23T11:13:43;4.70;;;2.70;;
75512;SDS011;64090;49.770;18.760;2023-03-23T11:16:54;4.10;;;2.10;;
75512;SDS011;64090;49.770;18.760;2023-03-23T11:19:57;7.00;;;2.60;;
75512;SDS011;64090;49.770;18.760;2023-03-23T11:23:00;4.30;;;1.90;;
75512;SDS011;64090;49.770;18.760;2023-03-23T11:29:26;3.90;;;2.10;;
75512;SDS011;64090;49.770;18.760;2023-03-23T11:32:29;3.80;;;1.60;;
75512;SDS011;64090;49.770;18.760;2023-03-23T11:35:32;3.70;;;2.00;;
75512;SDS011;64090;49.770;18.760;2023-03-23T11:38:34;4.70;;;2.20;;
75512;SDS011;64090;49.770;18.760;2023-03-23T11:41:37;2.90;;;1.60;;
75512;SDS011;64090;49.770;18.760;2023-03-23T11:44:43;4.40;;;2.10;;
75512;SDS011;64090;49.770;18.760;2023-03-23T11:51:02;4.20;;;2.30;;
75512;SDS011;64090;49.770;18.760;2023-03-23T11:54:09;4.70;;;1.80;;
75512;SDS011;64090;49.770;18.760;2023-03-23T11:57:27;3.70;;;2.10;;
75512;SDS011;64090;49.770;18.760;2023-03-23T12:00:31;3.80;;;2.40;;
75512;SDS011;64090;49.770;18.760;2023-03-23T12:06:48;3.50;;;1.60;;
75512;SDS011;64090;49.770;18.760;2023-03-23T12:26:25;4.30;;;1.90;;
75512;SDS011;64090;49.770;18.760;2023-03-23T12:39:42;2.60;;;1.20;;
75512;SDS011;64090;49.770;18.760;2023-03-23T12:43:13;3.70;;;1.90;;
75512;SDS011;64090;49.770;18.760;2023-03-23T12:49:49;2.80;;;1.40;;
75512;SDS011;64090;49.770;18.760;2023-03-23T12:53:01;4.20;;;1.90;;
75512;SDS011;64090;49.770;18.760;2023-03-23T12:56:13;4.40;;;2.00;;
75512;SDS011;64090;49.770;18.760;2023-03-23T13:02:56;5.30;;;1.70;;
75512;SDS011;64090;49.770;18.760;2023-03-23T13:09:46;3.50;;;1.70;;
75512;SDS011;64090;49.770;18.760;2023-03-23T13:12:54;2.60;;;1.50;;
75512;SDS011;64090;49.770;18.760;2023-03-23T13:16:08;3.90;;;1.60;;
75512;SDS011;64090;49.770;18.760;2023-03-23T13:19:24;2.20;;;1.50;;
75512;SDS011;64090;49.770;18.760;2023-03-23T13:25:44;3.10;;;1.90;;
75512;SDS011;64090;49.770;18.760;2023-03-23T13:28:58;3.10;;;1.90;;
75512;SDS011;64090;49.770;18.760;2023-03-23T13:32:51;2.50;;;1.40;;
75512;SDS011;64090;49.770;18.760;2023-03-23T13:35:38;3.00;;;1.50;;
75512;SDS011;64090;49.770;18.760;2023-03-23T13:38:47;2.70;;;1.70;;
75512;SDS011;64090;49.770;18.760;2023-03-23T13:48:39;3.10;;;1.90;;
75512;SDS011;64090;49.770;18.760;2023-03-23T13:54:45;2.90;;;1.60;;
75512;SDS011;64090;49.770;18.760;2023-03-23T14:01:17;4.70;;;2.80;;
75512;SDS011;64090;49.770;18.760;2023-03-23T14:04:33;5.10;;;1.70;;
75512;SDS011;64090;49.770;18.760;2023-03-23T14:07:55;2.40;;;1.00;;
75512;SDS011;64090;49.770;18.760;2023-03-23T14:11:01;3.10;;;1.50;;
75512;SDS011;64090;49.770;18.760;2023-03-23T14:14:18;4.60;;;1.90;;
75512;SDS011;64090;49.770;18.760;2023-03-23T14:17:26;3.60;;;1.70;;
75512;SDS011;64090;49.770;18.760;2023-03-23T14:20:31;4.60;;;1.70;;
75512;SDS011;64090;49.770;18.760;2023-03-23T14:23:35;6.60;;;1.70;;
75512;SDS011;64090;49.770;18.760;2023-03-23T14:26:38;2.30;;;1.50;;
75512;SDS011;64090;49.770;18.760;2023-03-23T14:29:41;3.20;;;1.60;;
75512;SDS011;64090;49.770;18.760;2023-03-23T14:32:43;3.30;;;1.90;;
75512;SDS011;64090;49.770;18.760;2023-03-23T14:35:45;4.00;;;1.80;;
75512;SDS011;64090;49.770;18.760;2023-03-23T14:39:00;5.30;;;1.70;;
75512;SDS011;64090;49.770;18.760;2023-03-23T14:42:09;6.30;;;1.90;;
75512;SDS011;64090;49.770;18.760;2023-03-23T14:45:17;2.40;;;1.30;;
75512;SDS011;64090;49.770;18.760;2023-03-23T14:48:20;2.80;;;1.90;;
75512;SDS011;64090;49.770;18.760;2023-03-23T14:51:22;4.70;;;2.10;;
75512;SDS011;64090;49.770;18.760;2023-03-23T14:54:25;3.40;;;2.00;;
75512;SDS011;64090;49.770;18.760;2023-03-23T14:57:29;3.70;;;2.00;;
75512;SDS011;64090;49.770;18.760;2023-03-23T15:00:32;2.90;;;1.80;;
75512;SDS011;64090;49.770;18.760;2023-03-23T15:03:41;4.40;;;2.60;;
75512;SDS011;64090;49.770;18.760;2023-03-23T15:06:54;4.90;;;2.30;;
75512;SDS011;64090;49.770;18.760;2023-03-23T15:10:00;4.40;;;2.80;;
75512;SDS011;64090;49.770;18.760;2023-03-23T15:13:03;5.20;;;2.60;;
75512;SDS011;64090;49.770;18.760;2023-03-23T15:16:07;4.90;;;2.60;;
75512;SDS011;64090;49.770;18.760;2023-03-23T15:19:20;4.00;;;2.60;;
75512;SDS011;64090;49.770;18.760;2023-03-23T15:22:25;4.10;;;2.20;;
75512;SDS011;64090;49.770;18.760;2023-03-23T15:28:33;4.50;;;2.80;;
75512;SDS011;64090;49.770;18.760;2023-03-23T15:34:51;3.70;;;2.50;;
75512;SDS011;64090;49.770;18.760;2023-03-23T15:37:58;5.70;;;2.80;;
75512;SDS011;64090;49.770;18.760;2023-03-23T15:41:04;4.70;;;3.00;;
75512;SDS011;64090;49.770;18.760;2023-03-23T15:44:12;5.20;;;3.10;;
75512;SDS011;64090;49.770;18.760;2023-03-23T15:47:33;5.30;;;3.50;;
75512;SDS011;64090;49.770;18.760;2023-03-23T15:50:46;6.90;;;3.80;;
75512;SDS011;64090;49.770;18.760;2023-03-23T15:53:49;5.70;;;3.00;;
75512;SDS011;64090;49.770;18.760;2023-03-23T15:56:53;3.90;;;3.00;;
75512;SDS011;64090;49.770;18.760;2023-03-23T15:59:54;5.90;;;4.50;;
75512;SDS011;64090;49.770;18.760;2023-03-23T16:02:58;5.60;;;3.30;;
75512;SDS011;64090;49.770;18.760;2023-03-23T16:06:04;4.50;;;2.70;;
75512;SDS011;64090;49.770;18.760;2023-03-23T16:09:07;4.80;;;3.10;;
75512;SDS011;64090;49.770;18.760;2023-03-23T16:12:17;7.80;;;4.10;;
75512;SDS011;64090;49.770;18.760;2023-03-23T16:15:23;6.30;;;3.90;;
75512;SDS011;64090;49.770;18.760;2023-03-23T16:18:26;10.30;;;4.90;;
75512;SDS011;64090;49.770;18.760;2023-03-23T16:21:28;6.20;;;4.40;;
75512;SDS011;64090;49.770;18.760;2023-03-23T16:24:32;6.50;;;4.40;;
75512;SDS011;64090;49.770;18.760;2023-03-23T16:27:35;5.60;;;3.20;;
75512;SDS011;64090;49.770;18.760;2023-03-23T16:30:38;4.70;;;2.70;;
75512;SDS011;64090;49.770;18.760;2023-03-23T16:33:43;3.50;;;2.50;;
75512;SDS011;64090;49.770;18.760;2023-03-23T16:36:46;7.90;;;4.20;;
75512;SDS011;64090;49.770;18.760;2023-03-23T16:39:49;5.10;;;2.90;;
75512;SDS011;64090;49.770;18.760;2023-03-23T16:42:52;6.10;;;3.70;;
75512;SDS011;64090;49.770;18.760;2023-03-23T16:45:56;6.80;;;4.40;;
75512;SDS011;64090;49.770;18.760;2023-03-23T16:48:59;7.10;;;4.70;;
75512;SDS011;64090;49.770;18.760;2023-03-23T16:52:02;5.90;;;2.70;;
75512;SDS011;64090;49.770;18.760;2023-03-23T16:55:05;6.30;;;4.50;;
75512;SDS011;64090;49.770;18.760;2023-03-23T16:58:09;7.50;;;4.60;;
75512;SDS011;64090;49.770;18.760;2023-03-23T17:01:18;4.60;;;2.90;;
75512;SDS011;64090;49.770;18.760;2023-03-23T17:04:21;7.90;;;4.00;;
75512;SDS011;64090;49.770;18.760;2023-03-23T17:07:26;8.60;;;4.90;;
75512;SDS011;64090;49.770;18.760;2023-03-23T17:10:30;8.00;;;4.80;;
75512;SDS011;64090;49.770;18.760;2023-03-23T17:13:36;7.90;;;4.90;;
75512;SDS011;64090;49.770;18.760;2023-03-23T17:16:39;9.50;;;5.40;;
75512;SDS011;64090;49.770;18.760;2023-03-23T17:19:43;8.20;;;4.20;;
75512;SDS011;64090;49.770;18.760;2023-03-23T17:22:46;9.50;;;5.40;;
75512;SDS011;64090;49.770;18.760;2023-03-23T17:25:49;7.50;;;5.50;;
75512;SDS011;64090;49.770;18.760;2023-03-23T17:28:53;9.50;;;4.80;;
75512;SDS011;64090;49.770;18.760;2023-03-23T17:31:56;6.70;;;4.20;;
75512;SDS011;64090;49.770;18.760;2023-03-23T17:34:58;7.60;;;4.70;;
75512;SDS011;64090;49.770;18.760;2023-03-23T17:38:02;9.30;;;5.30;;
75512;SDS011;64090;49.770;18.760;2023-03-23T17:41:05;7.50;;;4.20;;
75512;SDS011;64090;49.770;18.760;2023-03-23T17:44:09;9.20;;;5.20;;
75512;SDS011;64090;49.770;18.760;2023-03-23T17:47:12;6.80;;;4.50;;
75512;SDS011;64090;49.770;18.760;2023-03-23T17:50:15;5.80;;;3.80;;
75512;SDS011;64090;49.770;18.760;2023-03-23T17:53:19;7.90;;;4.80;;
75512;SDS011;64090;49.770;18.760;2023-03-23T17:56:21;7.80;;;4.30;;
75512;SDS011;64090;49.770;18.760;2023-03-23T17:59:24;8.00;;;4.60;;
75512;SDS011;64090;49.770;18.760;2023-03-23T18:02:28;8.30;;;5.40;;
75512;SDS011;64090;49.770;18.760;2023-03-23T18:05:32;9.00;;;4.40;;
75512;SDS011;64090;49.770;18.760;2023-03-23T18:08:36;7.40;;;4.60;;
75512;SDS011;64090;49.770;18.760;2023-03-23T18:11:40;8.50;;;4.80;;
75512;SDS011;64090;49.770;18.760;2023-03-23T18:14:43;7.20;;;4.90;;
75512;SDS011;64090;49.770;18.760;2023-03-23T18:17:46;6.80;;;3.10;;
75512;SDS011;64090;49.770;18.760;2023-03-23T18:23:56;7.90;;;3.80;;
75512;SDS011;64090;49.770;18.760;2023-03-23T18:27:04;6.30;;;4.00;;
75512;SDS011;64090;49.770;18.760;2023-03-23T18:30:07;6.20;;;3.80;;
75512;SDS011;64090;49.770;18.760;2023-03-23T18:33:12;7.30;;;4.40;;
75512;SDS011;64090;49.770;18.760;2023-03-23T18:36:16;4.30;;;2.50;;
75512;SDS011;64090;49.770;18.760;2023-03-23T18:39:21;4.60;;;3.10;;
75512;SDS011;64090;49.770;18.760;2023-03-23T18:42:24;5.20;;;3.60;;
75512;SDS011;64090;49.770;18.760;2023-03-23T18:45:29;5.00;;;3.10;;
75512;SDS011;64090;49.770;18.760;2023-03-23T18:48:35;6.60;;;4.00;;
75512;SDS011;64090;49.770;18.760;2023-03-23T18:51:42;8.60;;;4.30;;
75512;SDS011;64090;49.770;18.760;2023-03-23T18:54:45;7.10;;;4.00;;
75512;SDS011;64090;49.770;18.760;2023-03-23T18:57:48;6.50;;;3.30;;
75512;SDS011;64090;49.770;18.760;2023-03-23T19:00:54;7.00;;;4.80;;
75512;SDS011;64090;49.770;18.760;2023-03-23T19:03:58;7.40;;;4.70;;
75512;SDS011;64090;49.770;18.760;2023-03-23T19:07:01;7.10;;;3.90;;
75512;SDS011;64090;49.770;18.760;2023-03-23T19:10:05;8.70;;;4.60;;
75512;SDS011;64090;49.770;18.760;2023-03-23T19:13:11;5.50;;;3.50;;
75512;SDS011;64090;49.770;18.760;2023-03-23T19:16:15;10.70;;;4.80;;
75512;SDS011;64090;49.770;18.760;2023-03-23T19:19:18;7.30;;;4.00;;
75512;SDS011;64090;49.770;18.760;2023-03-23T19:22:21;7.40;;;4.10;;
75512;SDS011;64090;49.770;18.760;2023-03-23T19:25:24;7.10;;;4.30;;
75512;SDS011;64090;49.770;18.760;2023-03-23T19:28:28;7.30;;;4.50;;
75512;SDS011;64090;49.770;18.760;2023-03-23T19:31:34;6.60;;;4.30;;
75512;SDS011;64090;49.770;18.760;2023-03-23T19:34:37;7.40;;;4.10;;
75512;SDS011;64090;49.770;18.760;2023-03-23T19:37:41;6.00;;;3.60;;
75512;SDS011;64090;49.770;18.760;2023-03-23T19:40:54;7.40;;;3.80;;
75512;SDS011;64090;49.770;18.760;2023-03-23T19:44:06;9.50;;;4.30;;
75512;SDS011;64090;49.770;18.760;2023-03-23T19:47:10;7.90;;;4.80;;
75512;SDS011;64090;49.770;18.760;2023-03-23T19:50:13;8.20;;;4.90;;
75512;SDS011;64090;49.770;18.760;2023-03-23T19:53:16;10.00;;;5.90;;
75512;SDS011;64090;49.770;18.760;2023-03-23T19:56:20;7.90;;;4.30;;
75512;SDS011;64090;49.770;18.760;2023-03-23T19:59:24;7.50;;;4.60;;
75512;SDS011;64090;49.770;18.760;2023-03-23T20:02:27;7.50;;;3.60;;
75512;SDS011;64090;49.770;18.760;2023-03-23T20:05:31;6.20;;;4.00;;
75512;SDS011;64090;49.770;18.760;2023-03-23T20:08:38;7.70;;;3.80;;
75512;SDS011;64090;49.770;18.760;2023-03-23T20:11:45;6.60;;;3.70;;
75512;SDS011;64090;49.770;18.760;2023-03-23T20:14:51;8.90;;;4.40;;
75512;SDS011;64090;49.770;18.760;2023-03-23T20:17:54;6.50;;;3.60;;
75512;SDS011;64090;49.770;18.760;2023-03-23T20:21:00;5.20;;;2.80;;
75512;SDS011;64090;49.770;18.760;2023-03-23T20:24:08;7.00;;;3.80;;
75512;SDS011;64090;49.770;18.760;2023-03-23T20:27:11;6.50;;;3.90;;
75512;SDS011;64090;49.770;18.760;2023-03-23T20:30:19;5.60;;;2.80;;
75512;SDS011;64090;49.770;18.760;2023-03-23T20:33:22;7.30;;;3.40;;
75512;SDS011;64090;49.770;18.760;2023-03-23T20:36:25;7.50;;;3.50;;
75512;SDS011;64090;49.770;18.760;2023-03-23T20:39:31;7.60;;;3.90;;
75512;SDS011;64090;49.770;18.760;2023-03-23T20:42:35;7.10;;;3.30;;
75512;SDS011;64090;49.770;18.760;2023-03-23T20:45:38;5.00;;;3.10;;
75512;SDS011;64090;49.770;18.760;2023-03-23T20:48:41;5.60;;;3.00;;
75512;SDS011;64090;49.770;18.760;2023-03-23T20:51:44;5.00;;;3.30;;
75512;SDS011;64090;49.770;18.760;2023-03-23T20:54:48;5.10;;;3.20;;
75512;SDS011;64090;49.770;18.760;2023-03-23T20:57:52;7.10;;;3.00;;
75512;SDS011;64090;49.770;18.760;2023-03-23T21:00:55;4.20;;;2.70;;
75512;SDS011;64090;49.770;18.760;2023-03-23T21:04:00;5.40;;;3.50;;
75512;SDS011;64090;49.770;18.760;2023-03-23T21:07:04;6.30;;;3.30;;
75512;SDS011;64090;49.770;18.760;2023-03-23T21:10:07;6.80;;;3.80;;
75512;SDS011;64090;49.770;18.760;2023-03-23T21:13:10;5.60;;;3.30;;
75512;SDS011;64090;49.770;18.760;2023-03-23T21:16:15;6.40;;;3.40;;
75512;SDS011;64090;49.770;18.760;2023-03-23T21:19:23;6.50;;;3.80;;
75512;SDS011;64090;49.770;18.760;2023-03-23T21:22:26;6.50;;;4.00;;
75512;SDS011;64090;49.770;18.760;2023-03-23T21:25:30;7.00;;;3.90;;
75512;SDS011;64090;49.770;18.760;2023-03-23T21:28:36;8.50;;;4.10;;